Time;durP1;ratioP1;P1;durP2;ratioP2;P2;SDS_P1;SDS_P2;PMS_P1;PMS_P2;Temp;Humidity;BMP_temperature;BMP_pressure;BME280_temperature;BME280_humidity;BME280_pressure;Samples;Min_cycle;Max_cycle;Signal;HPM_P1;HPM_P2
2021/03/13 00:01:25;;;;;;;4.00;3.00;;;;;;;30.33;41.75;101301.66;5073563;28;65940;-36
2021/03/13 00:03:55;;;;;;;3.47;3.03;;;;;;;30.33;42.15;101297.06;5077443;28;69722;-37
2021/03/13 00:06:25;;;;;;;3.33;3.13;;;;;;;30.37;42.60;101302.88;5071410;28;67274;-36
2021/03/13 00:08:55;;;;;;;3.17;2.88;;;;;;;30.39;42.21;101308.94;5064341;28;70033;-35
2021/03/13 00:11:25;;;;;;;4.50;3.47;;;;;;;30.41;42.73;101310.41;5076549;28;66175;-35
2021/03/13 00:13:55;;;;;;;3.15;2.88;;;;;;;30.45;42.92;101316.22;5079219;28;69860;-39
2021/03/13 00:16:25;;;;;;;4.15;3.67;;;;;;;30.42;43.09;101322.03;5075940;28;65381;-37
2021/03/13 00:18:55;;;;;;;4.38;3.97;;;;;;;30.49;43.17;101334.56;5072851;28;69985;-37
2021/03/13 00:21:25;;;;;;;4.40;4.00;;;;;;;30.50;44.27;101335.38;5069584;28;66215;-37
2021/03/13 00:23:55;;;;;;;16.48;5.50;;;;;;;30.56;44.13;101339.97;5075822;28;70039;-36
2021/03/13 00:26:24;;;;;;;29.80;10.77;;;;;;;30.61;45.61;101337.47;5072520;28;66501;-37
2021/03/13 00:28:55;;;;;;;19.90;10.43;;;;;;;30.63;45.81;101340.81;5073295;28;69926;-36
2021/03/13 00:31:24;;;;;;;34.70;14.27;;;;;;;30.67;46.58;101352.91;5068984;28;66313;-36
2021/03/13 00:33:54;;;;;;;45.58;18.88;;;;;;;30.60;47.56;101357.47;5065346;28;69547;-36
2021/03/13 00:36:24;;;;;;;38.70;18.10;;;;;;;30.61;48.01;101358.31;5052491;28;66450;-40
2021/03/13 00:38:54;;;;;;;41.90;18.55;;;;;;;30.69;48.24;101356.22;5062993;28;69906;-35
2021/03/13 00:41:24;;;;;;;37.38;18.20;;;;;;;30.78;48.13;101358.72;5060149;28;66138;-41
2021/03/13 00:43:53;;;;;;;30.25;17.58;;;;;;;30.80;48.45;101359.41;5058949;28;69913;-36
2021/03/13 00:46:23;;;;;;;39.92;17.45;;;;;;;30.86;48.85;101361.25;5073573;28;66102;-36
2021/03/13 00:48:53;;;;;;;32.83;17.52;;;;;;;30.90;48.34;101357.09;5058123;28;69657;-36
2021/03/13 00:51:24;;;;;;;41.72;18.55;;;;;;;30.95;48.83;101357.28;5078818;28;65402;-36
2021/03/13 00:54:15;;;;;;;37.05;17.58;;;;;;;31.00;48.68;101362.91;5067678;28;69493;-36
2021/03/13 00:56:45;;;;;;;35.63;18.80;;;;;;;30.89;48.93;101345.41;5052096;28;66259;-36
2021/03/13 00:59:18;;;;;;;36.63;19.42;;;;;;;31.00;49.59;101368.34;5055654;28;69109;-38
2021/03/13 01:01:52;;;;;;;35.45;20.70;;;;;;;31.01;49.16;101370.03;5070048;28;65870;-35
2021/03/13 01:04:31;;;;;;;30.88;19.60;;;;;;;31.03;49.19;101367.91;5074629;28;69786;-36
2021/03/13 01:07:02;;;;;;;34.88;19.08;;;;;;;31.05;49.66;101375.84;5075975;28;66139;-36
2021/03/13 01:09:32;;;;;;;28.92;18.73;;;;;;;31.07;49.91;101368.34;5054436;28;69752;-36
2021/03/13 01:12:02;;;;;;;36.45;19.10;;;;;;;31.10;49.71;101367.94;5078717;28;66366;-37
2021/03/13 01:14:32;;;;;;;27.52;18.33;;;;;;;31.09;49.72;101367.09;5073666;28;69543;-36
2021/03/13 01:17:03;;;;;;;31.05;18.55;;;;;;;31.13;49.94;101368.31;5074461;28;66424;-36
2021/03/13 01:19:33;;;;;;;26.73;18.00;;;;;;;31.12;50.31;101377.50;5072673;28;69190;-40
2021/03/13 01:22:04;;;;;;;38.70;19.77;;;;;;;31.14;49.64;101375.41;5024166;28;65172;-36
2021/03/13 01:24:34;;;;;;;37.88;20.25;;;;;;;31.15;50.08;101371.66;5072084;28;69857;-37
2021/03/13 01:27:04;;;;;;;37.53;21.05;;;;;;;31.19;50.26;101373.94;5034884;28;66681;-36
2021/03/13 01:29:34;;;;;;;32.83;20.30;;;;;;;31.21;50.04;101374.59;5039358;28;69973;-37
2021/03/13 01:32:05;;;;;;;33.53;21.25;;;;;;;31.23;49.96;101377.91;5036765;28;66781;-36
2021/03/13 01:34:45;;;;;;;35.55;22.85;;;;;;;31.26;50.41;101382.88;5075354;28;70536;-38
2021/03/13 01:37:18;;;;;;;40.20;22.33;;;;;;;31.25;49.97;101375.81;5032742;28;65206;-37
2021/03/13 01:39:51;;;;;;;32.80;21.77;;;;;;;31.23;49.90;101373.34;5037054;28;69660;-36
2021/03/13 01:42:25;;;;;;;44.95;24.00;;;;;;;31.24;50.23;101374.16;5071614;28;66060;-36
2021/03/13 01:45:03;;;;;;;37.42;23.35;;;;;;;31.31;50.32;101385.81;5053680;28;70936;-36
2021/03/13 01:47:41;;;;;;;37.60;22.48;;;;;;;31.30;50.51;101378.72;5040162;28;65394;-37
2021/03/13 01:50:17;;;;;;;32.45;23.10;;;;;;;31.31;49.76;101366.84;5036834;28;70022;-38
2021/03/13 01:52:50;;;;;;;41.90;24.35;;;;;;;31.33;50.90;101379.13;5031506;28;66381;-35
2021/03/13 01:55:26;;;;;;;40.90;24.05;;;;;;;31.35;50.49;101376.22;5067943;28;69907;-36
2021/03/13 01:58:02;;;;;;;42.88;24.70;;;;;;;31.37;51.06;101379.56;5059180;28;66834;-36
2021/03/13 02:00:38;;;;;;;38.45;24.92;;;;;;;31.38;50.80;101381.25;5049105;28;69483;-37
2021/03/13 02:03:13;;;;;;;41.20;25.27;;;;;;;31.38;51.03;101389.38;5030015;28;65854;-36
2021/03/13 02:06:00;;;;;;;35.65;24.67;;;;;;;31.34;51.84;101379.97;5035168;28;70128;-36
2021/03/13 02:08:52;;;;;;;36.30;25.67;;;;;;;31.39;51.57;101391.03;5050711;28;65040;-36
2021/03/13 02:11:44;;;;;;;47.20;28.08;;;;;;;31.41;52.17;101388.94;5051359;28;69865;-36
2021/03/13 02:14:20;;;;;;;42.63;27.08;;;;;;;31.44;51.22;101391.25;5025944;28;66460;-33
2021/03/13 02:17:12;;;;;;;39.08;25.25;;;;;;;31.46;51.56;101391.03;5040969;28;69954;-36
2021/03/13 02:20:25;;;;;;;38.67;25.65;;;;;;;31.44;51.76;101385.81;5062301;28;65842;-35
2021/03/13 02:23:06;;;;;;;40.63;25.13;;;;;;;31.50;51.17;101395.81;5056898;28;70488;-35
2021/03/13 02:26:31;;;;;;;35.47;25.10;;;;;;;31.45;51.59;101390.19;5059507;28;66070;-35
2021/03/13 02:29:47;;;;;;;27.00;22.48;;;;;;;31.52;50.96;101385.59;5050384;28;69702;-33
2021/03/13 02:32:55;;;;;;;36.97;23.25;;;;;;;31.50;51.44;101384.97;5029139;28;65859;-35
2021/03/13 02:35:40;;;;;;;27.95;22.42;;;;;;;31.48;50.70;101375.38;5039056;28;69135;-37
2021/03/13 02:38:24;;;;;;;26.60;22.38;;;;;;;31.46;51.15;101369.34;5026177;28;66583;-33
2021/03/13 02:40:56;;;;;;;;;;;;;;;31.58;50.45;101382.03;5065977;28;69051;-33
2021/03/13 02:43:28;;;;;;;25.75;21.45;;;;;;;31.60;50.30;101374.50;5046509;28;66432;-33
2021/03/13 02:45:59;;;;;;;;;;;;;;;31.58;50.58;101365.75;5028858;28;69113;-35
2021/03/13 02:48:31;;;;;;;28.67;21.40;;;;;;;31.74;50.02;101379.91;5046554;28;65575;-35
2021/03/13 02:51:02;;;;;;;26.08;21.20;;;;;;;31.76;50.49;101377.78;5056323;28;71496;-33
2021/03/13 02:53:36;;;;;;;26.40;21.52;;;;;;;31.72;50.34;101376.56;5045394;28;66344;-36
2021/03/13 02:56:11;;;;;;;26.73;21.23;;;;;;;31.75;50.30;101376.13;5044532;28;69960;-33
2021/03/13 02:58:46;;;;;;;22.85;20.63;;;;;;;31.75;50.47;101370.69;5046256;28;65674;-34
2021/03/13 03:01:21;;;;;;;24.40;21.25;;;;;;;31.76;50.27;101361.50;5045146;28;70334;-35
2021/03/13 03:03:53;;;;;;;26.42;21.02;;;;;;;31.73;50.32;101357.38;5045301;28;65993;-35
2021/03/13 03:06:31;;;;;;;27.77;20.35;;;;;;;31.83;49.81;101352.31;5032161;28;69937;-35
2021/03/13 03:09:03;;;;;;;22.27;19.52;;;;;;;31.82;49.85;101355.25;5060967;28;65123;-34
2021/03/13 03:11:44;;;;;;;21.70;19.50;;;;;;;31.82;50.06;101344.41;5041440;28;71656;-33
2021/03/13 03:14:17;;;;;;;23.75;19.98;;;;;;;31.89;49.90;101353.31;5044140;28;65553;-31
2021/03/13 03:16:52;;;;;;;21.60;18.92;;;;;;;31.89;50.30;101345.19;5046072;28;70345;-32
2021/03/13 03:19:29;;;;;;;23.15;19.52;;;;;;;31.93;49.98;101348.31;5037841;28;65992;-30
2021/03/13 03:22:08;;;;;;;26.90;20.17;;;;;;;31.97;49.80;101333.28;5062586;28;70805;-30
2021/03/13 03:24:40;;;;;;;23.30;20.80;;;;;;;32.03;49.97;101341.38;5044098;28;65858;-29
2021/03/13 03:27:11;;;;;;;21.60;19.38;;;;;;;31.99;49.75;101329.31;5065993;28;70331;-30
2021/03/13 03:29:46;;;;;;;24.77;18.63;;;;;;;32.03;49.90;101330.53;5061439;28;65199;-30
2021/03/13 03:32:32;;;;;;;21.17;18.38;;;;;;;32.07;50.10;101330.94;5044128;28;70932;-33
2021/03/13 03:35:05;;;;;;;19.83;17.83;;;;;;;32.10;49.63;101324.25;5045984;28;66617;-32
2021/03/13 03:37:36;;;;;;;21.05;18.90;;;;;;;32.12;49.45;101316.69;5047456;28;70353;-31
2021/03/13 03:40:07;;;;;;;22.80;17.73;;;;;;;32.20;49.48;101319.16;5064467;28;66005;-32
2021/03/13 03:42:43;;;;;;;40.17;25.15;;;;;;;32.19;49.03;101318.31;5047959;28;70360;-30
2021/03/13 03:45:18;;;;;;;56.17;36.15;;;;;;;32.13;47.51;101291.22;5046739;28;67683;-33
2021/03/13 03:47:50;;;;;;;65.28;37.53;;;;;;;32.15;47.56;101286.41;5063109;28;70785;-31
2021/03/13 03:50:23;;;;;;;61.45;36.90;;;;;;;32.24;47.77;101293.25;5046458;28;66228;-30
2021/03/13 03:53:11;;;;;;;57.33;32.80;;;;;;;32.29;47.42;101298.84;5062213;28;70436;-30
2021/03/13 03:55:47;;;;;;;54.20;32.50;;;;;;;32.24;47.21;101293.25;5053153;28;66962;-30
2021/03/13 03:58:24;;;;;;;40.67;29.20;;;;;;;32.05;45.61;101274.16;5057301;28;69105;-30
2021/03/13 04:00:56;;;;;;;42.08;29.80;;;;;;;32.04;45.73;101282.53;5034517;28;64526;-30
2021/03/13 04:03:27;;;;;;;44.25;30.40;;;;;;;31.89;45.70;101269.22;5052450;28;70127;-31
2021/03/13 04:05:58;;;;;;;41.40;29.35;;;;;;;31.87;44.93;101274.00;5045119;28;66470;-34
2021/03/13 04:08:31;;;;;;;35.15;29.25;;;;;;;31.78;44.32;101262.59;5048401;28;68784;-28
2021/03/13 04:11:01;;;;;;;36.13;26.80;;;;;;;31.69;44.24;101263.91;5053107;28;66472;-30
2021/03/13 04:13:33;;;;;;;31.45;24.88;;;;;;;31.64;43.54;101247.44;5055909;28;70157;-31
2021/03/13 04:16:03;;;;;;;;;;;;;;;31.57;42.90;101239.34;5058632;28;65598;-30
2021/03/13 04:18:34;;;;;;;27.90;23.65;;;;;;;31.55;42.33;101236.03;5059859;28;70640;-32
2021/03/13 04:21:05;;;;;;;28.40;24.40;;;;;;;31.49;42.20;101239.59;5047056;28;65271;-35
2021/03/13 04:23:38;;;;;;;26.15;22.95;;;;;;;31.44;41.42;101234.00;5062379;28;69931;-32
2021/03/13 04:26:08;;;;;;;24.27;21.70;;;;;;;31.42;40.90;101214.41;5073610;28;66651;-31
2021/03/13 04:28:38;;;;;;;24.63;21.50;;;;;;;31.37;40.43;101216.91;5071129;28;69440;-32
2021/03/13 04:31:11;;;;;;;24.70;21.98;;;;;;;31.37;40.73;101220.47;5074419;28;66052;-32
2021/03/13 04:33:42;;;;;;;24.75;21.20;;;;;;;31.32;40.21;101198.56;5063583;28;70143;-32
2021/03/13 04:36:13;;;;;;;24.45;20.55;;;;;;;31.34;39.65;101201.06;5073243;28;65451;-32
2021/03/13 04:38:44;;;;;;;20.17;18.35;;;;;;;31.32;39.51;101189.63;5069387;28;70149;-33
2021/03/13 04:41:14;;;;;;;20.50;18.38;;;;;;;31.33;39.30;101183.13;5073771;28;64947;-32
2021/03/13 04:43:59;;;;;;;19.60;17.75;;;;;;;31.27;38.91;101175.88;5071072;28;69288;-32
2021/03/13 04:46:36;;;;;;;23.65;17.75;;;;;;;31.27;38.65;101178.59;5069524;28;66052;-31
2021/03/13 04:49:08;;;;;;;19.77;17.73;;;;;;;31.25;38.55;101175.25;5053173;28;70669;-35
2021/03/13 04:51:40;;;;;;;18.92;17.00;;;;;;;31.27;39.02;101154.19;5064920;28;65797;-31
2021/03/13 04:54:13;;;;;;;23.27;20.77;;;;;;;31.25;39.37;101153.56;5052835;28;70614;-32
2021/03/13 04:56:46;;;;;;;24.60;22.13;;;;;;;31.28;40.71;101158.56;5075445;28;65335;-38
2021/03/13 04:59:18;;;;;;;27.88;22.23;;;;;;;31.20;39.92;101135.25;5075993;28;69941;-36
2021/03/13 05:01:50;;;;;;;24.70;22.10;;;;;;;31.26;40.24;101139.81;5067901;28;66903;-32
2021/03/13 05:04:21;;;;;;;23.10;20.70;;;;;;;31.28;39.35;101126.03;5077964;28;69777;-32
2021/03/13 05:06:51;;;;;;;22.10;19.98;;;;;;;31.26;39.26;101118.13;5067762;28;66795;-32
2021/03/13 05:09:22;;;;;;;24.65;21.08;;;;;;;31.27;38.91;101118.97;5070677;28;69237;-32
2021/03/13 05:11:52;;;;;;;22.73;19.67;;;;;;;31.26;38.98;101106.44;5058588;28;66302;-33
2021/03/13 05:14:25;;;;;;;25.58;18.98;;;;;;;31.24;38.90;101103.13;5058224;28;70326;-33
2021/03/13 05:16:56;;;;;;;21.65;19.63;;;;;;;31.22;38.78;101094.38;5038228;28;65602;-35
2021/03/13 05:19:27;;;;;;;20.10;18.38;;;;;;;31.21;37.93;101082.72;5057685;28;69872;-33
2021/03/13 05:22:03;;;;;;;19.15;17.42;;;;;;;31.26;37.63;101074.78;5053408;28;66199;-33
2021/03/13 05:24:34;;;;;;;24.10;16.98;;;;;;;31.24;37.40;101071.44;5051174;28;69226;-33
2021/03/13 05:27:06;;;;;;;18.15;16.65;;;;;;;31.28;37.51;101058.28;5046626;28;65323;-36
2021/03/13 05:29:37;;;;;;;16.65;15.25;;;;;;;31.27;37.03;101064.75;5069162;28;70065;-35
2021/03/13 05:32:09;;;;;;;18.03;16.50;;;;;;;31.27;37.19;101060.16;5072880;28;66416;-31
2021/03/13 05:34:40;;;;;;;17.63;16.10;;;;;;;31.28;37.27;101058.28;5057189;28;68282;-33
2021/03/13 05:37:10;;;;;;;17.70;15.88;;;;;;;31.25;37.42;101050.59;5056933;28;65883;-31
2021/03/13 05:39:42;;;;;;;17.70;16.20;;;;;;;31.30;36.74;101050.75;5047843;28;69801;-30
2021/03/13 05:42:14;;;;;;;17.90;15.90;;;;;;;31.34;36.58;101043.84;5063093;28;65845;-31
2021/03/13 05:44:45;;;;;;;19.55;15.57;;;;;;;31.35;36.58;101040.09;5070790;28;69739;-31
2021/03/13 05:47:20;;;;;;;17.20;15.85;;;;;;;31.35;36.19;101032.78;5071015;27;65429;-32
2021/03/13 05:50:09;;;;;;;16.25;14.80;;;;;;;31.36;35.99;101020.09;5053307;28;69823;-31
2021/03/13 05:52:43;;;;;;;20.73;17.33;;;;;;;31.39;38.11;101014.22;5073708;28;66292;-30
2021/03/13 05:55:19;;;;;;;24.13;16.20;;;;;;;31.43;38.31;101010.03;5047857;28;69808;-31
2021/03/13 05:57:51;;;;;;;21.15;17.20;;;;;;;31.47;38.07;100994.97;5062720;28;65943;-32
2021/03/13 06:00:29;;;;;;;20.70;17.17;;;;;;;31.45;38.38;100991.66;5061735;28;70027;-30
2021/03/13 06:03:01;;;;;;;24.02;18.40;;;;;;;31.50;38.14;100986.41;5067053;28;64871;-35
2021/03/13 06:05:35;;;;;;;20.30;18.17;;;;;;;31.48;38.05;100985.81;5068379;28;70396;-30
2021/03/13 06:08:10;;;;;;;17.70;15.90;;;;;;;31.52;38.23;100976.16;5049183;28;65222;-30
2021/03/13 06:10:43;;;;;;;18.05;16.20;;;;;;;31.57;37.79;100975.50;5060379;28;70263;-30
2021/03/13 06:13:14;;;;;;;18.60;16.52;;;;;;;31.57;37.19;100976.34;5067815;28;66053;-30
2021/03/13 06:15:47;;;;;;;16.93;15.33;;;;;;;31.59;37.38;100965.25;5072994;28;69772;-31
2021/03/13 06:18:18;;;;;;;17.17;15.77;;;;;;;31.57;36.69;100962.78;5067940;28;65384;-30
2021/03/13 06:20:49;;;;;;;15.85;14.55;;;;;;;31.60;36.75;100951.50;5067379;28;70491;-31
2021/03/13 06:23:20;;;;;;;15.95;14.65;;;;;;;31.61;36.28;100950.41;5070455;28;66229;-31
2021/03/13 06:25:56;;;;;;;15.40;13.98;;;;;;;31.61;36.11;100945.00;5075364;28;70891;-29
2021/03/13 06:28:31;;;;;;;14.00;12.95;;;;;;;31.64;35.50;100934.75;5073666;28;65190;-31
2021/03/13 06:31:07;;;;;;;15.77;13.55;;;;;;;31.54;35.80;100927.16;5075623;28;70047;-31
2021/03/13 06:33:39;;;;;;;12.98;12.18;;;;;;;31.66;35.67;100932.66;5074543;28;66436;-29
2021/03/13 06:36:23;;;;;;;13.18;12.23;;;;;;;31.65;35.14;100929.13;5070434;28;69406;-30
2021/03/13 06:38:55;;;;;;;12.55;11.55;;;;;;;31.67;35.05;100926.19;5064949;28;65895;-30
2021/03/13 06:41:26;;;;;;;13.02;11.93;;;;;;;31.72;35.26;100926.34;5058975;28;69987;-30
2021/03/13 06:43:58;;;;;;;15.40;11.82;;;;;;;31.72;34.90;100921.75;5068954;28;65254;-30
2021/03/13 06:46:30;;;;;;;12.60;11.60;;;;;;;31.77;35.22;100918.34;5075510;28;70528;-30
2021/03/13 06:49:02;;;;;;;12.07;11.38;;;;;;;31.76;35.07;100912.09;5070250;28;64995;-30
2021/03/13 06:51:37;;;;;;;11.85;11.15;;;;;;;31.79;34.76;100917.09;5067478;28;69881;-32
2021/03/13 06:54:16;;;;;;;11.25;10.55;;;;;;;31.69;33.90;100896.97;5075422;28;65968;-30
2021/03/13 06:56:59;;;;;;;10.90;10.30;;;;;;;31.75;34.17;100905.00;5066015;28;68926;-31
2021/03/13 06:59:33;;;;;;;;;;;;;;;31.87;34.17;100901.53;5060176;27;65937;-32
2021/03/13 07:02:06;;;;;;;20.33;10.43;;;;;;;31.90;34.22;100896.50;5065574;28;69364;-32
2021/03/13 07:04:42;;;;;;;11.63;10.63;;;;;;;31.87;33.71;100883.38;5060237;28;67005;-32
2021/03/13 07:07:31;;;;;;;11.15;10.18;;;;;;;31.94;33.98;100881.47;5062076;28;70125;-32
2021/03/13 07:10:05;;;;;;;10.82;10.02;;;;;;;31.98;33.73;100860.97;5060337;28;65523;-30
2021/03/13 07:12:41;;;;;;;10.43;9.65;;;;;;;32.00;34.05;100852.59;5056958;28;70069;-33
2021/03/13 07:15:21;;;;;;;9.93;9.32;;;;;;;31.94;33.73;100843.47;5058519;28;67183;-31
2021/03/13 07:18:00;;;;;;;9.73;8.93;;;;;;;32.00;32.96;100853.41;5037464;28;69421;-30
2021/03/13 07:20:34;;;;;;;9.13;8.52;;;;;;;32.04;33.16;100849.19;5051226;28;66937;-31
2021/03/13 07:23:06;;;;;;;9.10;8.40;;;;;;;32.04;33.70;100838.34;5041285;28;70209;-34
2021/03/13 07:25:37;;;;;;;8.98;8.48;;;;;;;32.10;32.99;100835.78;5052860;28;65604;-31
2021/03/13 07:28:10;;;;;;;9.85;8.98;;;;;;;32.04;33.30;100838.34;5055712;28;70022;-31
2021/03/13 07:30:43;;;;;;;10.35;9.18;;;;;;;32.08;33.10;100827.03;5068937;28;66367;-31
2021/03/13 07:33:16;;;;;;;9.68;9.07;;;;;;;32.10;33.68;100824.91;5072251;28;68976;-31
2021/03/13 07:35:52;;;;;;;8.90;8.40;;;;;;;32.07;33.05;100811.78;5075748;28;66181;-30
2021/03/13 07:38:27;;;;;;;9.75;9.15;;;;;;;32.14;33.23;100826.09;5061763;28;70003;-31
2021/03/13 07:41:01;;;;;;;10.35;9.75;;;;;;;32.12;33.25;100817.34;5072142;28;65901;-33
2021/03/13 07:43:38;;;;;;;10.65;9.85;;;;;;;32.12;33.54;100814.63;5071051;28;70166;-31
2021/03/13 07:46:11;;;;;;;14.90;10.55;;;;;;;32.14;33.38;100804.38;5068966;28;65275;-31
2021/03/13 07:48:45;;;;;;;10.82;10.07;;;;;;;32.18;33.39;100805.56;5073373;28;70322;-30
2021/03/13 07:51:18;;;;;;;10.63;9.85;;;;;;;32.18;32.79;100794.72;5067505;28;66709;-32
2021/03/13 07:53:50;;;;;;;12.43;11.30;;;;;;;32.27;32.60;100801.50;5068493;28;70410;-31
2021/03/13 07:56:22;;;;;;;10.40;9.80;;;;;;;32.31;32.41;100797.25;5048561;28;68026;-32
2021/03/13 07:58:53;;;;;;;;;;;;;;;32.36;31.96;100791.94;5073410;28;70138;-32
2021/03/13 08:01:46;;;;;;;11.65;10.52;;;;;;;32.40;32.31;100793.16;5067861;28;66846;-31
2021/03/13 08:04:42;;;;;;;11.20;10.40;;;;;;;32.42;32.14;100780.16;5072550;28;69275;-32
2021/03/13 08:07:14;;;;;;;12.90;11.68;;;;;;;32.40;31.86;100787.72;5072705;28;65104;-31
2021/03/13 08:09:45;;;;;;;15.68;11.32;;;;;;;32.38;31.84;100780.88;5063890;27;69854;-30
2021/03/13 08:12:40;;;;;;;12.38;11.50;;;;;;;32.35;31.39;100784.06;5079989;28;65948;-30
2021/03/13 08:15:33;;;;;;;11.60;10.90;;;;;;;32.43;32.07;100786.41;5077645;28;70536;-31
2021/03/13 08:18:06;;;;;;;12.65;11.10;;;;;;;32.38;31.90;100781.69;5040095;28;66068;-35
2021/03/13 08:20:43;;;;;;;12.60;11.52;;;;;;;32.37;32.11;100766.44;5054708;28;70672;-29
2021/03/13 08:23:18;;;;;;;15.25;11.40;;;;;;;32.37;31.88;100780.00;5038005;28;65236;-32
2021/03/13 08:25:56;;;;;;;12.55;11.52;;;;;;;32.33;31.29;100765.25;5067124;28;70078;-32
2021/03/13 08:28:48;;;;;;;27.52;12.23;;;;;;;32.44;32.53;100788.06;5067021;28;65970;-35
2021/03/13 08:31:32;;;;;;;20.80;12.68;;;;;;;32.51;32.72;100771.69;5070900;28;69714;-31
2021/03/13 08:34:10;;;;;;;16.83;12.63;;;;;;;32.50;32.62;100770.88;5056740;28;66020;-34
2021/03/13 08:36:46;;;;;;;28.52;13.00;;;;;;;32.51;33.33;100771.69;5033308;28;69354;-32
2021/03/13 08:39:36;;;;;;;31.25;13.07;;;;;;;32.51;34.73;100787.97;5073294;28;66021;-32
2021/03/13 08:42:32;;;;;;;23.30;13.38;;;;;;;32.62;37.69;100779.03;5042090;28;69341;-33
2021/03/13 08:45:18;;;;;;;33.83;13.93;;;;;;;32.79;38.93;100774.56;5066821;28;65785;-31
2021/03/13 08:47:52;;;;;;;21.15;13.80;;;;;;;32.85;39.52;100773.63;5052462;28;69422;-32
2021/03/13 08:50:46;;;;;;;23.90;15.38;;;;;;;33.05;41.11;100791.47;5053842;28;65907;-30
2021/03/13 08:53:41;;;;;;;24.35;14.45;;;;;;;33.09;41.64;100768.19;5075591;28;70211;-30
2021/03/13 08:56:29;;;;;;;;;;;;;;;33.31;41.48;100788.25;5071300;28;65352;-32
2021/03/13 08:59:10;;;;;;;21.42;12.77;;;;;;;33.34;41.27;100776.06;5067577;28;70336;-32
2021/03/13 09:02:07;;;;;;;22.92;13.60;;;;;;;33.41;41.01;100776.78;5074357;28;66734;-31
2021/03/13 09:04:51;;;;;;;18.40;13.40;;;;;;;33.45;40.90;100777.09;5045445;28;70412;-32
2021/03/13 09:07:24;;;;;;;16.88;12.90;;;;;;;33.52;40.69;100784.09;5073618;28;66160;-34
2021/03/13 09:10:02;;;;;;;20.63;13.05;;;;;;;33.57;41.24;100786.94;5065557;28;70072;-31
2021/03/13 09:12:38;;;;;;;17.58;12.75;;;;;;;33.59;40.83;100784.78;5071543;28;66104;-31
2021/03/13 09:15:10;;;;;;;16.05;13.00;;;;;;;33.64;41.18;100791.41;5073608;28;70188;-30
2021/03/13 09:17:42;;;;;;;21.70;12.93;;;;;;;33.63;41.20;100782.41;5058707;28;65320;-31
2021/03/13 09:20:29;;;;;;;14.93;12.65;;;;;;;33.67;41.21;100797.19;5063264;28;69276;-30
2021/03/13 09:23:12;;;;;;;23.13;12.10;;;;;;;33.69;41.11;100794.22;5075696;27;65834;-31
2021/03/13 09:25:43;;;;;;;24.55;12.32;;;;;;;33.69;41.07;100800.50;5075554;28;70006;-31
2021/03/13 09:28:19;;;;;;;16.48;11.60;;;;;;;33.73;41.17;100798.91;5076058;28;65963;-29
2021/03/13 09:30:51;;;;;;;29.25;12.57;;;;;;;33.71;41.47;100797.50;5068073;28;69888;-29
2021/03/13 09:33:23;;;;;;;26.23;13.50;;;;;;;33.74;41.71;100787.00;5073580;28;66362;-31
2021/03/13 09:36:11;;;;;;;31.50;12.20;;;;;;;33.75;41.78;100798.69;5048964;28;69067;-29
2021/03/13 09:38:56;;;;;;;22.67;11.40;;;;;;;33.78;40.71;100792.75;5074230;28;66592;-28
2021/03/13 09:41:29;;;;;;;22.67;11.25;;;;;;;33.85;40.61;100800.78;5065697;28;69153;-28
2021/03/13 09:44:04;;;;;;;22.83;10.55;;;;;;;33.87;40.53;100802.19;5070616;28;66594;-29
2021/03/13 09:46:42;;;;;;;23.55;10.07;;;;;;;33.83;40.21;100805.66;5071859;28;69513;-30
2021/03/13 09:49:13;;;;;;;22.38;10.00;;;;;;;33.78;40.58;100804.47;5043026;28;65430;-31
2021/03/13 09:51:52;;;;;;;21.15;10.55;;;;;;;33.83;40.51;100805.66;5078361;28;69248;-29
2021/03/13 09:54:26;;;;;;;19.67;10.55;;;;;;;33.84;40.32;100799.13;5078258;28;66109;-29
2021/03/13 09:56:56;;;;;;;37.25;11.18;;;;;;;33.84;40.63;100796.41;5076531;28;70222;-35
2021/03/13 09:59:50;;;;;;;;;;;;;;;33.83;40.16;100811.09;5062687;28;66089;-30
2021/03/13 10:02:22;;;;;;;20.27;9.67;;;;;;;33.87;39.88;100795.91;5057166;28;70878;-31
2021/03/13 10:04:56;;;;;;;21.70;10.05;;;;;;;33.88;40.10;100797.56;5064515;28;66336;-31
2021/03/13 10:07:31;;;;;;;20.00;9.45;;;;;;;33.89;40.36;100796.50;5065852;28;69480;-30
2021/03/13 10:10:13;;;;;;;12.32;9.07;;;;;;;33.81;40.81;100782.22;5064418;28;66073;-31
2021/03/13 10:12:49;;;;;;;26.25;10.63;;;;;;;33.76;40.76;100790.28;5061931;28;70085;-30
2021/03/13 10:15:35;;;;;;;17.13;8.55;;;;;;;33.83;40.89;100801.03;5064314;28;66007;-31
2021/03/13 10:18:17;;;;;;;13.25;8.85;;;;;;;33.86;41.01;100816.06;5060483;28;69947;-30
2021/03/13 10:20:57;;;;;;;16.52;8.77;;;;;;;33.84;41.49;100815.47;5076073;28;66591;-31
2021/03/13 10:23:38;;;;;;;14.50;9.13;;;;;;;33.85;41.45;100814.38;5073559;28;70620;-32
2021/03/13 10:26:17;;;;;;;18.90;9.88;;;;;;;33.83;41.54;100817.34;5077068;28;65112;-31
2021/03/13 10:28:53;;;;;;;14.50;8.95;;;;;;;33.87;41.40;100817.69;5022449;28;70618;-30
2021/03/13 10:31:30;;;;;;;18.98;8.98;;;;;;;33.83;41.78;100821.97;5055518;28;66494;-30
2021/03/13 10:34:14;;;;;;;16.80;9.15;;;;;;;33.70;40.39;100818.44;5066921;27;70605;-30
2021/03/13 10:36:46;;;;;;;22.45;9.43;;;;;;;33.70;40.38;100829.34;5066889;28;65399;-29
2021/03/13 10:39:18;;;;;;;10.40;8.80;;;;;;;33.68;40.30;100830.63;5073549;28;70408;-29
2021/03/13 10:41:58;;;;;;;22.33;9.52;;;;;;;33.64;40.26;100830.31;5075360;28;67071;-30
2021/03/13 10:44:49;;;;;;;26.92;14.13;;;;;;;33.62;40.09;100843.31;5073112;28;70407;-31
2021/03/13 10:47:35;;;;;;;21.17;12.63;;;;;;;33.61;39.69;100838.13;5076574;28;66559;-29
2021/03/13 10:50:13;;;;;;;26.13;15.63;;;;;;;33.56;39.94;100845.09;5072245;28;70093;-31
2021/03/13 10:52:45;;;;;;;58.63;42.45;;;;;;;33.53;39.55;100840.13;5070194;28;66552;-31
2021/03/13 10:55:39;;;;;;;93.35;72.45;;;;;;;33.33;39.22;100829.63;5074581;28;70063;-30
2021/03/13 10:58:10;;;;;;;129.52;103.25;;;;;;;33.50;39.95;100853.38;5064394;28;66794;-34
2021/03/13 11:00:40;;;;;;;99.85;66.53;;;;;;;33.50;39.70;100865.06;5073410;28;71047;-30
2021/03/13 11:03:10;;;;;;;78.85;54.03;;;;;;;33.51;40.57;100865.88;5072233;28;66324;-32
2021/03/13 11:05:40;;;;;;;72.30;49.05;;;;;;;33.44;40.05;100863.31;5066908;28;70036;-30
2021/03/13 11:08:15;;;;;;;63.92;46.85;;;;;;;33.35;39.44;100871.00;5065452;28;67736;-31
2021/03/13 11:10:47;;;;;;;61.70;43.55;;;;;;;33.32;39.12;100871.47;5058112;28;70455;-32
2021/03/13 11:13:21;;;;;;;63.35;39.67;;;;;;;33.21;38.90;100875.03;5037450;28;66243;-31
2021/03/13 11:16:00;;;;;;;46.60;35.00;;;;;;;33.09;37.94;100879.63;5059880;28;68715;-30
2021/03/13 11:18:34;;;;;;;53.85;33.45;;;;;;;33.06;37.82;100885.53;5065297;28;66817;-31
2021/03/13 11:21:14;;;;;;;43.10;31.13;;;;;;;32.94;37.62;100886.31;5063835;28;70281;-32
2021/03/13 11:23:45;;;;;;;53.88;27.45;;;;;;;32.84;37.23;100888.75;5037259;28;68280;-29
2021/03/13 11:26:22;;;;;;;39.42;26.67;;;;;;;32.76;37.42;100894.53;5065629;28;69317;-30
2021/03/13 11:28:58;;;;;;;40.58;24.13;;;;;;;32.70;37.16;100890.03;5066367;28;66598;-31
2021/03/13 11:31:29;;;;;;;33.97;23.65;;;;;;;32.63;37.30;100889.34;5062918;28;70634;-31
2021/03/13 11:34:00;;;;;;;30.48;21.77;;;;;;;32.58;36.97;100897.34;5045454;28;66381;-32
2021/03/13 11:36:30;;;;;;;27.80;20.27;;;;;;;32.41;36.71;100887.09;5065673;28;69170;-34
2021/03/13 11:39:07;;;;;;;29.88;19.45;;;;;;;32.47;37.13;100901.66;5063999;28;66212;-33
2021/03/13 11:41:43;;;;;;;29.00;18.98;;;;;;;32.37;36.63;100896.75;5045248;28;70322;-31
2021/03/13 11:44:15;;;;;;;31.48;17.25;;;;;;;32.34;36.58;100897.22;5066982;28;66549;-33
2021/03/13 11:46:52;;;;;;;28.63;17.25;;;;;;;32.34;36.71;100908.06;5064329;28;69969;-30
2021/03/13 11:49:24;;;;;;;22.58;16.85;;;;;;;32.27;36.27;100907.34;5046365;28;66319;-31
2021/03/13 11:51:55;;;;;;;28.02;15.68;;;;;;;32.24;36.91;100913.22;5069801;28;70492;-31